Time;durP1;ratioP1;P1;durP2;ratioP2;P2;SDS_P1;SDS_P2;PMS_P1;PMS_P2;Temp;Humidity;BMP_temperature;BMP_pressure;BME280_temperature;BME280_humidity;BME280_pressure;Samples;Min_cycle;Max_cycle;Signal;HPM_P1;HPM_P2
2023/10/03 00:02:57;;;;;;;40.87;20.37;;;;;;;19.72;57.16;98855.19;7037534;28;20572;-84
2023/10/03 00:06:20;;;;;;;39.50;20.57;;;;;;;19.56;58.84;98879.94;7050586;28;20212;-84
2023/10/03 00:09:43;;;;;;;34.47;19.90;;;;;;;19.52;58.87;98881.56;7052816;28;20287;-83
2023/10/03 00:13:07;;;;;;;41.73;20.87;;;;;;;19.39;58.92;98880.06;7054380;28;20239;-84
2023/10/03 00:16:29;;;;;;;42.43;20.53;;;;;;;19.00;59.29;98844.94;7046672;28;20201;-84
2023/10/03 00:19:50;;;;;;;38.27;20.07;;;;;;;18.98;59.99;98852.59;7027521;28;20293;-83
2023/10/03 00:23:13;;;;;;;43.70;20.13;;;;;;;19.47;59.18;98876.88;7054787;28;20211;-84
2023/10/03 00:26:35;;;;;;;44.30;21.40;;;;;;;19.42;58.59;98854.13;7055617;28;20205;-83
2023/10/03 00:29:56;;;;;;;38.27;19.73;;;;;;;19.47;58.27;98865.94;7028900;28;20231;-83
2023/10/03 00:33:18;;;;;;;40.30;20.47;;;;;;;19.41;57.90;98869.69;7054421;28;20315;-83
2023/10/03 00:36:40;;;;;;;42.70;19.43;;;;;;;19.07;59.22;98870.16;7046674;28;20333;-83
2023/10/03 00:40:16;;;;;;;40.23;19.77;;;;;;;19.39;58.56;98865.59;7054745;28;20200;-85
2023/10/03 00:43:38;;;;;;;38.47;19.80;;;;;;;19.26;58.59;98866.00;7029459;28;20710;-85
2023/10/03 00:47:00;;;;;;;38.17;19.70;;;;;;;19.13;58.89;98828.97;7025956;28;20343;-86
2023/10/03 00:50:25;;;;;;;42.93;20.80;;;;;;;18.68;60.35;98853.06;7033278;28;20197;-84
2023/10/03 00:53:46;;;;;;;36.50;18.27;;;;;;;19.06;59.31;98814.69;7025133;28;20229;-85
2023/10/03 00:57:09;;;;;;;40.43;20.33;;;;;;;19.12;59.10;98849.19;7045147;28;20200;-85
2023/10/03 01:00:31;;;;;;;36.87;18.37;;;;;;;18.75;60.62;98850.16;7054292;28;20256;-85
2023/10/03 01:03:53;;;;;;;41.47;20.17;;;;;;;18.68;60.49;98850.34;7053438;28;20255;-85
2023/10/03 01:07:17;;;;;;;39.53;19.53;;;;;;;18.97;59.80;98840.81;7049926;28;20204;-85
2023/10/03 01:10:38;;;;;;;38.47;18.87;;;;;;;19.32;59.00;98833.00;7032868;28;20678;-85
2023/10/03 01:14:01;;;;;;;40.13;19.67;;;;;;;19.19;59.42;98841.59;7052665;28;20232;-85
2023/10/03 01:17:24;;;;;;;36.80;19.47;;;;;;;19.21;58.81;98836.72;7053415;28;20215;-85
2023/10/03 01:20:48;;;;;;;38.37;20.07;;;;;;;18.96;58.90;98817.31;7053808;28;20204;-85
2023/10/03 01:24:14;;;;;;;40.17;21.07;;;;;;;19.19;58.63;98824.34;7036443;28;20217;-86
2023/10/03 01:27:35;;;;;;;41.70;20.37;;;;;;;19.33;58.23;98833.81;7047654;28;20209;-83
2023/10/03 01:30:58;;;;;;;35.23;19.20;;;;;;;19.23;58.28;98833.72;7025879;28;20205;-83
2023/10/03 01:34:22;;;;;;;42.70;19.93;;;;;;;18.47;60.27;98832.06;7033252;28;20221;-83
2023/10/03 01:37:45;;;;;;;39.63;20.53;;;;;;;18.32;60.66;98804.56;7033663;28;20345;-84
2023/10/03 01:41:08;;;;;;;40.70;20.43;;;;;;;18.52;60.88;98834.03;7024886;28;20214;-83
2023/10/03 01:44:29;;;;;;;36.53;19.43;;;;;;;18.56;61.06;98816.88;7028827;28;20235;-83
2023/10/03 01:47:51;;;;;;;39.47;18.57;;;;;;;18.77;60.18;98815.19;7037482;28;20264;-85
2023/10/03 01:51:12;;;;;;;36.03;18.20;;;;;;;18.65;60.71;98819.97;7033160;28;20214;-85
2023/10/03 01:54:34;;;;;;;37.23;19.33;;;;;;;18.72;60.53;98821.44;7053406;28;20694;-85
2023/10/03 01:57:58;;;;;;;38.90;18.27;;;;;;;18.76;59.89;98792.50;7053645;28;20249;-85
2023/10/03 02:01:21;;;;;;;39.93;19.13;;;;;;;18.84;59.35;98802.16;7036093;28;20207;-87
2023/10/03 02:04:42;;;;;;;36.20;17.80;;;;;;;18.61;59.88;98802.44;7025444;28;20225;-85
2023/10/03 02:08:07;;;;;;;42.17;19.43;;;;;;;18.43;60.99;98805.50;7042925;28;20590;-84
2023/10/03 02:11:29;;;;;;;41.07;19.53;;;;;;;18.60;61.12;98798.91;7050299;28;20600;-85
2023/10/03 02:14:54;;;;;;;38.97;18.67;;;;;;;18.59;61.01;98796.44;7032364;28;20638;-86
2023/10/03 02:18:18;;;;;;;35.17;18.17;;;;;;;18.67;60.41;98799.53;7054890;28;20200;-83
2023/10/03 02:21:42;;;;;;;37.47;18.77;;;;;;;18.44;60.78;98788.88;7065036;28;20212;-83
2023/10/03 02:25:04;;;;;;;36.60;18.07;;;;;;;18.47;61.10;98793.00;7062411;28;20391;-84
2023/10/03 02:28:26;;;;;;;34.53;18.30;;;;;;;18.44;60.90;98774.41;7048242;28;20201;-85
2023/10/03 02:31:49;;;;;;;36.27;17.60;;;;;;;19.01;59.56;98770.06;7049326;28;21979;-84
2023/10/03 02:35:14;;;;;;;40.97;19.47;;;;;;;19.14;59.25;98783.31;7043003;28;20229;-84
2023/10/03 02:38:37;;;;;;;32.60;18.70;;;;;;;18.71;60.29;98767.91;7037932;28;20197;-84
2023/10/03 02:41:58;;;;;;;38.47;19.20;;;;;;;18.44;60.06;98717.06;7030979;28;20219;-82
2023/10/03 02:45:22;;;;;;;34.77;17.73;;;;;;;18.94;59.37;98756.66;7049770;28;20224;-84
2023/10/03 02:48:45;;;;;;;36.60;17.43;;;;;;;19.16;58.21;98749.16;7028532;28;20235;-86
2023/10/03 02:52:07;;;;;;;32.70;17.90;;;;;;;19.00;58.44;98755.59;7051437;28;20318;-84
2023/10/03 02:55:28;;;;;;;35.07;16.97;;;;;;;17.89;60.29;98648.22;7026752;28;20232;-86
2023/10/03 02:58:50;;;;;;;34.27;17.30;;;;;;;18.28;60.54;98729.69;7055977;28;20238;-84
2023/10/03 03:02:12;;;;;;;37.90;18.63;;;;;;;18.65;59.72;98751.69;7050974;28;20254;-85
2023/10/03 03:05:38;;;;;;;30.90;17.20;;;;;;;18.51;59.73;98751.28;7028800;28;20221;-85
2023/10/03 03:09:00;;;;;;;36.27;17.77;;;;;;;18.21;60.96;98737.25;7040340;28;20336;-85
2023/10/03 03:12:21;;;;;;;35.70;18.23;;;;;;;18.26;60.41;98710.03;7056094;27;20322;-85
2023/10/03 03:15:49;;;;;;;38.73;18.50;;;;;;;17.93;61.63;98687.56;7044255;28;20896;-85
2023/10/03 03:19:11;;;;;;;35.67;18.70;;;;;;;18.31;61.70;98742.00;7028404;28;20550;-86
2023/10/03 03:22:34;;;;;;;30.40;17.57;;;;;;;18.62;60.80;98742.13;7046782;28;20210;-86
2023/10/03 03:26:12;;;;;;;34.07;16.60;;;;;;;18.46;60.87;98729.38;7042171;28;20595;-84
2023/10/03 03:29:36;;;;;;;36.40;17.83;;;;;;;18.56;60.58;98742.31;7030793;28;20272;-85
2023/10/03 03:32:59;;;;;;;33.97;17.57;;;;;;;18.35;60.36;98735.00;7054958;28;20709;-83
2023/10/03 03:36:21;;;;;;;33.97;18.33;;;;;;;18.37;60.72;98749.22;7055743;27;20211;-85
2023/10/03 03:39:53;;;;;;;36.50;17.30;;;;;;;18.32;60.30;98721.84;7027522;28;20258;-86
2023/10/03 03:43:16;;;;;;;36.17;19.47;;;;;;;18.32;60.58;98755.44;7051067;28;20283;-85
2023/10/03 03:46:40;;;;;;;35.93;18.67;;;;;;;18.15;61.19;98746.47;7055089;28;20204;-86
2023/10/03 03:50:10;;;;;;;35.47;18.30;;;;;;;18.53;60.05;98764.69;7055572;28;20207;-85
2023/10/03 03:53:31;;;;;;;30.83;16.43;;;;;;;18.12;61.39;98754.34;7055144;28;20227;-85
2023/10/03 03:56:54;;;;;;;36.30;18.40;;;;;;;18.21;60.98;98772.75;7050725;28;20201;-85
2023/10/03 04:00:22;;;;;;;35.07;17.07;;;;;;;17.09;63.97;98769.69;7027143;28;20332;-86
2023/10/03 04:03:45;;;;;;;34.63;17.70;;;;;;;17.70;63.03;98773.16;7037698;28;20259;-86
2023/10/03 04:07:07;;;;;;;36.43;17.33;;;;;;;18.29;61.37;98755.91;7032379;28;20197;-85
2023/10/03 04:10:28;;;;;;;32.53;17.23;;;;;;;17.93;60.50;98691.09;7035348;28;20284;-86
2023/10/03 04:13:54;;;;;;;36.23;18.33;;;;;;;18.10;61.24;98743.69;7044216;28;20363;-86
2023/10/03 04:17:18;;;;;;;34.77;17.47;;;;;;;18.01;61.80;98736.19;7054802;28;20198;-86
2023/10/03 04:20:41;;;;;;;31.67;17.73;;;;;;;17.96;61.68;98742.41;7041046;28;20212;-86
2023/10/03 04:24:02;;;;;;;32.13;16.53;;;;;;;17.96;61.87;98747.88;7025539;28;20224;-86
2023/10/03 04:27:25;;;;;;;31.53;16.87;;;;;;;17.51;62.86;98741.00;7051008;28;20204;-86
2023/10/03 04:30:49;;;;;;;37.07;17.43;;;;;;;17.30;62.92;98715.31;7054549;28;20207;-86
2023/10/03 04:34:15;;;;;;;34.07;16.67;;;;;;;17.63;62.83;98712.50;7039606;28;20238;-86
2023/10/03 04:37:36;;;;;;;31.77;16.67;;;;;;;17.82;62.07;98726.69;7052324;28;20230;-86
2023/10/03 04:40:58;;;;;;;35.07;18.37;;;;;;;17.41;63.66;98736.22;7053831;28;20659;-85
2023/10/03 04:44:20;;;;;;;31.67;16.10;;;;;;;17.60;64.11;98718.50;7038827;28;20240;-85
2023/10/03 04:47:44;;;;;;;32.60;16.43;;;;;;;17.84;63.26;98732.69;7035653;28;20689;-85
2023/10/03 04:51:06;;;;;;;31.93;17.27;;;;;;;17.38;62.99;98674.00;7053776;28;20204;-85
2023/10/03 04:54:28;;;;;;;32.70;16.93;;;;;;;18.14;61.65;98736.63;7037317;28;20229;-86
2023/10/03 04:57:51;;;;;;;32.83;15.70;;;;;;;17.84;61.51;98716.34;7025874;28;20341;-85
2023/10/03 05:01:13;;;;;;;32.40;16.67;;;;;;;17.73;61.74;98723.56;7029878;28;20215;-85
2023/10/03 05:04:35;;;;;;;30.30;16.77;;;;;;;17.36;61.84;98684.31;7053470;28;20713;-86
2023/10/03 05:07:58;;;;;;;29.03;16.23;;;;;;;17.69;62.80;98730.59;7044570;28;20204;-85
2023/10/03 05:11:20;;;;;;;33.07;16.87;;;;;;;17.58;62.92;98733.44;7081226;28;20200;-85
2023/10/03 05:14:41;;;;;;;32.13;17.00;;;;;;;17.46;61.74;98705.47;7057931;28;20253;-86
2023/10/03 05:18:03;;;;;;;28.57;15.70;;;;;;;17.12;64.10;98715.56;7035809;28;20332;-85
2023/10/03 05:21:26;;;;;;;26.53;15.07;;;;;;;17.99;62.13;98732.91;7046619;28;20311;-85
2023/10/03 05:24:49;;;;;;;30.70;17.00;;;;;;;18.24;60.61;98736.78;7049554;28;20299;-86
2023/10/03 05:28:11;;;;;;;29.53;16.47;;;;;;;17.90;61.53;98737.13;7045206;28;20234;-85
2023/10/03 05:31:34;;;;;;;28.10;15.00;;;;;;;17.93;62.16;98728.47;7052248;28;20204;-85
2023/10/03 05:34:58;;;;;;;29.27;16.40;;;;;;;18.14;61.02;98727.63;7024881;28;20232;-86
2023/10/03 05:38:23;;;;;;;31.90;15.77;;;;;;;17.76;61.57;98709.41;7039334;28;20196;-85
2023/10/03 05:41:44;;;;;;;31.60;15.67;;;;;;;18.11;61.74;98741.78;7051910;28;20573;-86
2023/10/03 05:45:08;;;;;;;38.13;21.07;;;;;;;18.03;60.58;98720.38;7057778;28;20239;-86
2023/10/03 05:48:30;;;;;;;30.80;17.10;;;;;;;18.53;60.05;98731.91;7042212;28;20219;-86
2023/10/03 05:51:55;;;;;;;32.57;15.13;;;;;;;18.36;60.53;98744.84;7059526;28;20228;-84
2023/10/03 05:55:18;;;;;;;30.43;15.33;;;;;;;18.67;59.72;98720.31;7041246;28;20699;-85
2023/10/03 05:58:40;;;;;;;28.97;16.03;;;;;;;18.31;60.65;98744.75;7045013;28;20211;-85
2023/10/03 06:02:03;;;;;;;29.87;15.67;;;;;;;18.45;59.48;98722.28;7053284;28;20204;-84
2023/10/03 06:05:24;;;;;;;29.43;15.17;;;;;;;18.60;59.86;98749.75;7052220;28;20229;-87
2023/10/03 06:08:49;;;;;;;30.37;16.30;;;;;;;19.03;58.90;98746.03;7042495;28;20292;-83
2023/10/03 06:12:11;;;;;;;29.97;17.10;;;;;;;19.07;58.96;98758.09;7047591;28;20204;-86
2023/10/03 06:15:36;;;;;;;33.20;17.40;;;;;;;18.98;59.28;98755.03;7041912;28;20251;-85
2023/10/03 06:18:58;;;;;;;27.43;15.50;;;;;;;19.21;58.76;98745.69;7027898;28;20209;-86
2023/10/03 06:22:19;;;;;;;24.13;13.80;;;;;;;19.11;58.93;98757.31;7028172;28;20308;-87
2023/10/03 06:25:41;;;;;;;26.13;14.90;;;;;;;19.51;57.41;98752.19;7038637;28;20223;-86
2023/10/03 06:29:04;;;;;;;28.67;15.27;;;;;;;19.80;57.31;98766.34;7043977;28;20662;-84
2023/10/03 06:32:25;;;;;;;19.03;12.17;;;;;;;20.38;54.70;98705.81;7023719;28;20227;-91
2023/10/03 06:35:47;;;;;;;24.10;13.17;;;;;;;21.66;52.04;98731.63;7026295;28;20266;-86
2023/10/03 06:39:10;;;;;;;28.93;15.00;;;;;;;22.31;50.91;98752.59;7030401;28;20212;-85
2023/10/03 06:42:33;;;;;;;24.20;14.50;;;;;;;22.00;50.97;98751.06;7029011;28;20249;-87
2023/10/03 06:45:57;;;;;;;26.37;15.50;;;;;;;22.06;51.77;98749.97;7029436;28;20225;-87
2023/10/03 06:49:22;;;;;;;28.37;14.97;;;;;;;22.92;50.43;98767.66;7037964;28;20898;-86
2023/10/03 06:52:43;;;;;;;33.10;20.47;;;;;;;22.86;50.10;98766.91;7044346;28;20220;-85
2023/10/03 06:56:05;;;;;;;26.70;15.03;;;;;;;23.37;49.55;98768.16;7041180;27;20229;-85
2023/10/03 06:59:26;;;;;;;17.87;10.97;;;;;;;24.29;45.46;98756.78;7037114;28;20250;-86
2023/10/03 07:02:49;;;;;;;11.80;8.37;;;;;;;24.61;42.59;98725.78;7031694;28;20332;-85
2023/10/03 07:06:11;;;;;;;13.03;7.97;;;;;;;25.48;41.48;98747.84;7046931;28;20230;-87
2023/10/03 07:09:32;;;;;;;10.57;6.90;;;;;;;26.15;40.10;98754.66;7057442;28;20262;-85
2023/10/03 07:12:54;;;;;;;10.27;6.57;;;;;;;26.38;38.06;98751.69;7038947;28;20271;-86
2023/10/03 07:16:15;;;;;;;11.27;6.97;;;;;;;26.71;38.07;98760.69;7049230;28;20215;-85
2023/10/03 07:19:38;;;;;;;10.30;6.80;;;;;;;27.48;37.04;98762.19;7046221;28;20201;-84
2023/10/03 07:23:02;;;;;;;13.17;6.90;;;;;;;28.02;35.46;98748.03;7057870;28;20564;-82
2023/10/03 07:26:26;;;;;;;11.23;7.07;;;;;;;28.35;35.01;98760.38;7030755;28;20203;-88
2023/10/03 07:29:47;;;;;;;12.90;7.43;;;;;;;28.78;34.17;98756.59;7028780;28;20205;-86
2023/10/03 07:33:10;;;;;;;10.20;6.07;;;;;;;28.30;34.18;98753.03;7035786;28;20650;-86
2023/10/03 07:36:33;;;;;;;7.87;6.33;;;;;;;27.43;34.23;98695.84;7044215;28;20212;-86
2023/10/03 07:39:55;;;;;;;9.30;6.60;;;;;;;28.09;34.38;98751.16;7046347;28;20197;-85
2023/10/03 07:43:16;;;;;;;10.40;6.43;;;;;;;28.24;34.20;98756.28;7074817;28;20244;-85
2023/10/03 07:46:38;;;;;;;10.90;6.20;;;;;;;28.54;33.08;98750.66;7062981;28;20199;-85
2023/10/03 07:50:01;;;;;;;9.90;6.53;;;;;;;28.57;33.24;98752.81;7053266;28;20205;-85
2023/10/03 07:53:23;;;;;;;9.20;6.60;;;;;;;28.53;32.67;98750.97;7027114;28;20270;-85
2023/10/03 07:56:45;;;;;;;9.10;5.93;;;;;;;28.87;32.63;98760.22;7033681;28;20278;-85
2023/10/03 08:00:09;;;;;;;9.80;5.93;;;;;;;29.13;32.33;98761.06;7056087;28;20303;-84
2023/10/03 08:03:33;;;;;;;10.27;6.53;;;;;;;28.98;32.55;98758.78;7046081;28;20230;-85
2023/10/03 08:06:55;;;;;;;8.07;5.87;;;;;;;29.05;32.63;98761.88;7051655;28;20206;-83
2023/10/03 08:10:19;;;;;;;9.10;5.37;;;;;;;29.40;31.64;98748.78;7041582;28;20578;-82
2023/10/03 08:13:41;;;;;;;10.27;6.10;;;;;;;29.17;32.17;98761.22;7039070;28;20681;-82
2023/10/03 08:17:03;;;;;;;9.53;5.70;;;;;;;29.53;30.84;98768.09;7038608;28;20285;-85
2023/10/03 08:20:26;;;;;;;7.73;5.50;;;;;;;28.89;31.68;98682.97;7043604;28;20270;-85
2023/10/03 08:23:51;;;;;;;7.03;5.60;;;;;;;29.45;31.99;98755.03;7039291;28;20224;-83
2023/10/03 08:27:19;;;;;;;10.33;6.07;;;;;;;29.27;31.38;98749.78;7044586;28;20212;-83
2023/10/03 08:30:42;;;;;;;7.87;6.03;;;;;;;29.56;31.57;98755.50;7045690;28;20196;-84
2023/10/03 08:34:10;;;;;;;8.40;6.33;;;;;;;30.14;30.76;98737.03;7035637;28;20228;-83
2023/10/03 08:37:38;;;;;;;8.60;5.90;;;;;;;30.31;30.04;98748.09;7043372;28;20222;-83
2023/10/03 08:41:00;;;;;;;9.40;6.17;;;;;;;29.81;31.15;98747.13;7038403;28;20226;-84
2023/10/03 08:44:24;;;;;;;7.17;6.20;;;;;;;30.62;31.08;98753.34;7042887;28;20227;-82
2023/10/03 08:47:51;;;;;;;8.87;6.33;;;;;;;30.84;30.09;98742.72;7035180;28;20212;-83
2023/10/03 08:51:17;;;;;;;9.70;5.90;;;;;;;31.03;29.90;98729.19;7042052;28;20216;-84
2023/10/03 08:54:41;;;;;;;7.67;5.90;;;;;;;31.45;29.41;98746.69;7035059;28;20596;-84
2023/10/03 08:58:04;;;;;;;7.73;5.77;;;;;;;31.07;29.56;98744.03;7044345;28;20291;-84
2023/10/03 09:01:33;;;;;;;9.20;5.57;;;;;;;30.37;30.28;98746.75;7044022;28;20207;-84
2023/10/03 09:04:56;;;;;;;10.27;5.60;;;;;;;31.08;30.10;98742.88;7045362;28;20220;-84
2023/10/03 09:08:18;;;;;;;8.77;5.93;;;;;;;31.49;29.40;98669.59;7031294;28;20679;-84
2023/10/03 09:11:58;;;;;;;8.33;5.70;;;;;;;31.69;28.85;98744.00;7038663;28;20368;-85
2023/10/03 09:15:22;;;;;;;8.73;6.40;;;;;;;31.73;29.49;98748.56;6963990;28;20729;-83
2023/10/03 09:18:55;;;;;;;10.23;5.80;;;;;;;31.87;28.92;98734.31;6952303;28;20213;-83
2023/10/03 09:22:30;;;;;;;7.30;5.80;;;;;;;31.76;28.98;98733.94;6954220;28;20204;-85
2023/10/03 09:25:55;;;;;;;9.90;5.83;;;;;;;31.49;29.63;98740.09;6948523;28;20224;-84
2023/10/03 09:29:29;;;;;;;7.13;5.53;;;;;;;31.83;28.67;98736.97;6949014;28;20656;-86
2023/10/03 09:32:51;;;;;;;8.23;5.60;;;;;;;31.11;30.12;98725.50;6952074;28;20697;-84
2023/10/03 09:36:14;;;;;;;9.70;4.97;;;;;;;32.01;29.30;98715.28;6958059;28;20313;-83
2023/10/03 09:39:39;;;;;;;7.17;5.63;;;;;;;32.95;27.31;98696.06;6954381;28;20304;-83
2023/10/03 09:43:11;;;;;;;6.40;5.27;;;;;;;32.98;28.37;98730.88;6956469;28;20213;-86
2023/10/03 09:46:39;;;;;;;6.93;5.70;;;;;;;33.29;27.79;98729.06;6955639;28;20218;-83
2023/10/03 09:50:04;;;;;;;8.17;5.40;;;;;;;34.16;26.20;98730.69;6954621;28;20267;-85
2023/10/03 09:53:28;;;;;;;7.20;5.30;;;;;;;33.22;27.05;98723.22;7022971;28;20235;-84
2023/10/03 09:56:50;;;;;;;7.37;5.47;;;;;;;33.33;27.37;98718.78;7033905;28;20346;-85
2023/10/03 10:00:23;;;;;;;5.43;4.60;;;;;;;34.17;26.53;98709.09;7028575;28;20194;-85
2023/10/03 10:03:46;;;;;;;7.57;4.90;;;;;;;34.56;26.18;98710.91;7034523;28;20243;-84
2023/10/03 10:07:16;;;;;;;6.50;5.23;;;;;;;33.28;27.97;98718.22;7032385;28;20299;-86
2023/10/03 10:10:41;;;;;;;6.40;4.83;;;;;;;34.28;27.04;98690.63;7048033;28;20212;-85
2023/10/03 10:14:09;;;;;;;6.03;5.37;;;;;;;33.80;26.98;98686.19;7035375;27;20232;-87
2023/10/03 10:17:54;;;;;;;8.03;4.53;;;;;;;34.22;27.22;98678.88;7046751;28;20197;-85
2023/10/03 10:21:26;;;;;;;7.53;4.87;;;;;;;35.06;25.74;98668.84;7047065;28;20200;-85
2023/10/03 10:25:20;;;;;;;7.73;5.00;;;;;;;33.20;28.00;98680.81;7059754;28;20224;-85
2023/10/03 10:28:43;;;;;;;6.53;4.80;;;;;;;33.30;27.48;98663.59;7046485;28;20208;-85
2023/10/03 10:32:17;;;;;;;8.67;5.33;;;;;;;32.76;28.37;98665.16;7053287;28;20201;-83
2023/10/03 10:35:54;;;;;;;5.33;4.50;;;;;;;32.81;28.81;98655.72;7052118;28;20255;-84
2023/10/03 10:39:16;;;;;;;6.40;4.70;;;;;;;32.52;28.94;98673.56;7035515;28;20197;-85
2023/10/03 10:43:04;;;;;;;6.17;4.17;;;;;;;32.69;29.13;98678.88;7043787;28;20242;-84
2023/10/03 10:46:35;;;;;;;7.73;4.70;;;;;;;33.04;28.69;98670.78;7043029;28;20211;-79
2023/10/03 10:49:57;;;;;;;6.27;4.73;;;;;;;32.57;29.87;98673.31;7045114;28;20242;-84
2023/10/03 10:53:19;;;;;;;7.50;4.77;;;;;;;32.32;29.98;98660.53;7042130;28;20232;-85
2023/10/03 10:56:40;;;;;;;5.33;4.63;;;;;;;32.38;29.77;98670.31;7059459;28;20292;-83
2023/10/03 11:00:15;;;;;;;5.10;4.17;;;;;;;32.43;30.08;98677.66;7063086;28;20281;-82
2023/10/03 11:03:38;;;;;;;8.00;4.57;;;;;;;31.89;30.81;98677.00;7052024;28;20281;-83
2023/10/03 11:07:00;;;;;;;6.37;4.60;;;;;;;32.27;30.18;98668.34;7056770;28;20232;-82
2023/10/03 11:10:22;;;;;;;6.40;4.57;;;;;;;32.46;30.92;98688.91;7058940;28;20211;-85
2023/10/03 11:13:45;;;;;;;6.73;4.53;;;;;;;32.93;29.52;98690.03;7037565;27;20410;-82
2023/10/03 11:17:07;;;;;;;5.73;4.43;;;;;;;33.48;29.27;98695.66;7050705;28;20570;-83
2023/10/03 11:20:31;;;;;;;7.50;4.40;;;;;;;32.88;29.02;98636.38;7061727;28;20200;-82
2023/10/03 11:24:23;;;;;;;5.67;4.73;;;;;;;32.44;29.94;98690.44;7052055;28;20703;-84
2023/10/03 11:27:46;;;;;;;9.97;4.70;;;;;;;31.80;30.64;98690.28;6966293;28;20293;-83
2023/10/03 11:31:09;;;;;;;6.43;4.60;;;;;;;32.18;30.43;98685.16;7032855;28;20252;-84
2023/10/03 11:34:32;;;;;;;6.47;4.43;;;;;;;32.61;29.57;98667.84;7038280;28;20251;-83
2023/10/03 11:37:55;;;;;;;7.97;4.97;;;;;;;31.91;30.71;98676.69;7028668;28;20289;-82
2023/10/03 11:41:30;;;;;;;6.97;4.73;;;;;;;31.65;30.98;98678.91;7031756;28;20294;-81
2023/10/03 11:44:58;;;;;;;6.80;4.50;;;;;;;31.88;30.48;98644.72;7037026;28;20220;-83
2023/10/03 11:48:19;;;;;;;4.63;4.13;;;;;;;32.66;30.27;98668.41;7041369;28;20289;-83
2023/10/03 11:51:43;;;;;;;7.50;4.93;;;;;;;33.37;29.36;98665.78;7048084;28;20727;-82
2023/10/03 11:55:09;;;;;;;6.33;4.93;;;;;;;32.65;29.71;98680.75;7049157;27;20235;-81
2023/10/03 11:58:30;;;;;;;4.77;4.03;;;;;;;32.04;30.92;98679.13;7049418;28;20669;-81
2023/10/03 12:01:56;;;;;;;7.07;5.00;;;;;;;32.79;30.19;98681.19;7038220;28;20241;-81
2023/10/03 12:05:18;;;;;;;6.30;5.10;;;;;;;32.84;29.65;98682.94;7050958;28;20288;-80
2023/10/03 12:08:42;;;;;;;6.00;4.80;;;;;;;32.94;29.87;98688.84;7045602;28;20242;-82
2023/10/03 12:12:05;;;;;;;8.30;4.90;;;;;;;32.44;29.78;98659.72;7048745;28;20208;-85
2023/10/03 12:15:27;;;;;;;6.23;4.60;;;;;;;32.15;30.66;98685.88;7044082;28;20263;-84
2023/10/03 12:18:49;;;;;;;5.67;4.60;;;;;;;32.04;31.10;98678.31;7041052;28;20218;-85
2023/10/03 12:22:11;;;;;;;6.30;4.07;;;;;;;31.82;31.69;98685.16;7053324;28;20205;-84
2023/10/03 12:25:32;;;;;;;5.67;4.83;;;;;;;31.91;31.32;98679.47;7048937;28;20247;-85
2023/10/03 12:28:56;;;;;;;7.13;4.80;;;;;;;32.08;31.23;98679.25;7048393;28;20675;-84
2023/10/03 12:32:18;;;;;;;9.77;4.90;;;;;;;31.91;31.25;98659.94;7044508;28;20209;-85
2023/10/03 12:35:40;;;;;;;7.37;5.07;;;;;;;31.84;31.71;98693.19;7043874;28;20256;-84
2023/10/03 12:39:10;;;;;;;8.80;5.50;;;;;;;31.33;32.64;98696.47;7044638;28;20221;-82
2023/10/03 12:42:32;;;;;;;9.00;5.73;;;;;;;31.20;32.96;98701.19;7045338;28;20242;-84
2023/10/03 12:45:56;;;;;;;6.80;5.33;;;;;;;30.44;33.37;98599.56;7031861;28;20230;-84
2023/10/03 12:49:19;;;;;;;7.87;5.30;;;;;;;30.40;33.74;98714.66;7043867;28;20192;-85
2023/10/03 12:52:42;;;;;;;8.50;4.83;;;;;;;30.31;33.76;98661.84;7045025;28;20294;-84
2023/10/03 12:56:08;;;;;;;6.87;5.10;;;;;;;30.91;33.11;98720.72;7066150;28;20283;-87
2023/10/03 12:59:29;;;;;;;7.87;5.30;;;;;;;30.50;34.33;98720.69;7060498;28;20209;-86
2023/10/03 13:02:54;;;;;;;7.97;5.70;;;;;;;30.52;34.26;98743.41;7070741;28;20222;-86
2023/10/03 13:06:15;;;;;;;8.87;5.57;;;;;;;29.83;34.65;98666.19;7071652;28;20225;-84
2023/10/03 13:09:37;;;;;;;7.93;5.50;;;;;;;29.97;34.45;98720.41;7035069;28;20202;-88
2023/10/03 13:12:59;;;;;;;9.40;5.30;;;;;;;30.58;33.86;98730.09;7043802;28;20212;-88
2023/10/03 13:16:21;;;;;;;9.27;5.33;;;;;;;30.31;34.66;98748.09;7054006;28;20233;-83
2023/10/03 13:19:44;;;;;;;5.90;5.23;;;;;;;30.38;33.73;98703.06;7045397;28;20199;-85
2023/10/03 13:23:06;;;;;;;9.03;5.30;;;;;;;30.73;33.45;98746.25;7046851;28;20203;-85
2023/10/03 13:26:28;;;;;;;8.43;5.40;;;;;;;30.32;34.24;98773.97;7037944;28;20212;-84
2023/10/03 13:29:51;;;;;;;9.40;5.77;;;;;;;30.36;34.28;98769.38;7047111;28;20340;-85
2023/10/03 13:33:13;;;;;;;7.57;5.43;;;;;;;30.09;34.51;98756.72;7045041;28;20207;-85
2023/10/03 13:36:35;;;;;;;7.17;5.60;;;;;;;29.70;35.49;98756.13;7045683;28;20264;-85
2023/10/03 13:39:57;;;;;;;8.37;5.53;;;;;;;30.03;34.71;98732.16;7049515;28;20258;-84
2023/10/03 13:43:18;;;;;;;7.07;4.90;;;;;;;30.52;34.55;98793.50;7037473;28;20233;-85
2023/10/03 13:46:40;;;;;;;7.90;5.73;;;;;;;29.78;36.03;98808.94;7046301;28;20234;-86
2023/10/03 13:50:03;;;;;;;10.30;6.33;;;;;;;29.22;36.93;98806.34;7044931;28;20210;-87
2023/10/03 13:53:26;;;;;;;9.20;5.23;;;;;;;29.53;37.34;98800.63;7043842;28;20251;-85
2023/10/03 13:56:48;;;;;;;7.53;5.53;;;;;;;29.49;37.35;98805.19;7035428;28;20234;-85
2023/10/03 14:00:12;;;;;;;10.00;6.20;;;;;;;29.57;36.58;98774.66;7037339;28;20228;-85
2023/10/03 14:03:37;;;;;;;6.67;5.73;;;;;;;30.23;35.82;98798.22;7039951;28;20229;-85
2023/10/03 14:06:58;;;;;;;8.83;6.07;;;;;;;29.69;36.39;98796.19;7044092;28;20198;-85
2023/10/03 14:10:22;;;;;;;9.17;6.03;;;;;;;29.77;36.97;98815.66;7045077;28;20298;-84
2023/10/03 14:13:44;;;;;;;9.67;6.40;;;;;;;29.92;36.27;98798.47;7034693;28;20226;-85
2023/10/03 14:17:05;;;;;;;9.70;6.17;;;;;;;29.42;37.01;98769.56;7046919;28;20270;-84
2023/10/03 14:20:27;;;;;;;8.43;5.80;;;;;;;29.76;36.53;98821.53;7038446;28;20197;-85
2023/10/03 14:23:51;;;;;;;8.27;6.00;;;;;;;29.98;36.06;98824.09;7041057;28;20239;-85
2023/10/03 14:27:14;;;;;;;8.83;5.53;;;;;;;29.69;36.31;98812.88;7043131;28;20203;-86
2023/10/03 14:30:36;;;;;;;6.67;5.23;;;;;;;29.13;36.47;98843.56;7029896;28;20279;-86
2023/10/03 14:33:57;;;;;;;9.43;5.00;;;;;;;29.34;36.03;98845.38;7043467;28;20258;-85
2023/10/03 14:37:19;;;;;;;6.53;5.17;;;;;;;28.62;36.37;98838.69;7036029;28;20234;-86
2023/10/03 14:40:40;;;;;;;6.87;4.87;;;;;;;28.62;35.64;98822.03;7039421;28;20239;-85
2023/10/03 14:44:05;;;;;;;11.07;4.60;;;;;;;28.58;35.65;98821.03;7046052;28;20265;-85
2023/10/03 14:47:28;;;;;;;6.30;4.43;;;;;;;28.69;35.97;98860.41;7030052;28;20206;-84
2023/10/03 14:50:49;;;;;;;8.07;4.83;;;;;;;28.77;36.20;98862.41;7030641;28;20201;-85
2023/10/03 14:54:11;;;;;;;7.33;4.33;;;;;;;28.15;37.23;98853.28;7045638;28;20780;-85
2023/10/03 14:57:33;;;;;;;7.90;4.47;;;;;;;27.83;37.42;98881.28;7042673;28;20270;-85
2023/10/03 15:01:04;;;;;;;8.23;4.30;;;;;;;27.64;37.41;98865.94;7064964;28;20209;-86
2023/10/03 15:04:25;;;;;;;6.80;3.70;;;;;;;27.84;36.62;98823.91;7048229;28;20221;-85
2023/10/03 15:07:47;;;;;;;6.83;4.00;;;;;;;28.25;36.21;98864.09;7040365;28;20237;-84
2023/10/03 15:11:10;;;;;;;7.37;4.20;;;;;;;28.42;36.36;98872.53;7037867;28;20653;-85
2023/10/03 15:14:31;;;;;;;7.07;4.20;;;;;;;28.20;36.27;98844.00;7047434;28;20348;-85
2023/10/03 15:17:54;;;;;;;5.07;4.17;;;;;;;27.91;37.51;98860.31;7044571;28;20284;-85
2023/10/03 15:21:17;;;;;;;8.13;4.20;;;;;;;28.15;37.44;98863.53;7065037;28;20480;-85
2023/10/03 15:24:38;;;;;;;5.90;4.50;;;;;;;28.07;37.45;98856.81;7050811;28;20225;-85
2023/10/03 15:28:00;;;;;;;5.43;3.90;;;;;;;28.20;36.96;98833.72;7042083;28;20345;-85
2023/10/03 15:31:23;;;;;;;7.57;4.73;;;;;;;28.48;37.24;98868.47;7047963;28;20212;-85
2023/10/03 15:34:46;;;;;;;6.60;4.37;;;;;;;27.89;37.63;98855.06;7046572;27;20305;-86
2023/10/03 15:38:09;;;;;;;9.10;4.33;;;;;;;28.10;37.74;98872.81;7052020;27;20284;-84
2023/10/03 15:41:30;;;;;;;6.47;3.60;;;;;;;27.48;38.27;98854.41;7041211;28;20205;-85
2023/10/03 15:44:53;;;;;;;4.03;3.50;;;;;;;26.98;39.55;98901.75;7047978;28;20635;-83
2023/10/03 15:48:16;;;;;;;6.80;3.70;;;;;;;26.87;39.35;98853.28;7050471;28;20723;-84
2023/10/03 15:51:38;;;;;;;7.73;4.03;;;;;;;27.35;39.40;98932.81;7042268;28;20651;-85